sensor_id;sensor_type;location;lat;lon;timestamp;P1;durP1;ratioP1;P2;durP2;ratioP2
8952;SDS011;4511;50.890;8.054;2023-07-13T00:00:08;2.73;;;1.80;;
8952;SDS011;4511;50.890;8.054;2023-07-13T00:02:37;2.70;;;1.80;;
8952;SDS011;4511;50.890;8.054;2023-07-13T00:05:04;3.63;;;1.70;;
8952;SDS011;4511;50.890;8.054;2023-07-13T00:07:33;3.77;;;1.77;;
8952;SDS011;4511;50.890;8.054;2023-07-13T00:10:00;5.17;;;1.80;;
8952;SDS011;4511;50.890;8.054;2023-07-13T00:12:28;2.83;;;1.70;;
8952;SDS011;4511;50.890;8.054;2023-07-13T00:14:57;4.20;;;1.70;;
8952;SDS011;4511;50.890;8.054;2023-07-13T00:17:25;3.13;;;1.90;;
8952;SDS011;4511;50.890;8.054;2023-07-13T00:19:53;2.90;;;1.90;;
8952;SDS011;4511;50.890;8.054;2023-07-13T00:22:20;3.40;;;1.80;;
8952;SDS011;4511;50.890;8.054;2023-07-13T00:24:50;2.27;;;1.50;;
8952;SDS011;4511;50.890;8.054;2023-07-13T00:27:18;5.07;;;1.90;;
8952;SDS011;4511;50.890;8.054;2023-07-13T00:29:45;2.93;;;1.63;;
8952;SDS011;4511;50.890;8.054;2023-07-13T00:32:11;3.40;;;1.60;;
8952;SDS011;4511;50.890;8.054;2023-07-13T00:34:38;7.53;;;2.23;;
8952;SDS011;4511;50.890;8.054;2023-07-13T00:37:06;6.63;;;1.80;;
8952;SDS011;4511;50.890;8.054;2023-07-13T00:39:33;2.53;;;1.83;;
8952;SDS011;4511;50.890;8.054;2023-07-13T00:42:03;2.90;;;1.80;;
8952;SDS011;4511;50.890;8.054;2023-07-13T00:44:31;2.87;;;1.87;;
8952;SDS011;4511;50.890;8.054;2023-07-13T00:46:57;4.23;;;2.00;;
8952;SDS011;4511;50.890;8.054;2023-07-13T00:49:25;3.67;;;1.80;;
8952;SDS011;4511;50.890;8.054;2023-07-13T00:51:55;3.60;;;1.67;;
8952;SDS011;4511;50.890;8.054;2023-07-13T00:54:24;5.77;;;1.90;;
8952;SDS011;4511;50.890;8.054;2023-07-13T00:56:55;5.90;;;2.07;;
8952;SDS011;4511;50.890;8.054;2023-07-13T00:59:26;2.20;;;1.80;;
8952;SDS011;4511;50.890;8.054;2023-07-13T01:01:54;3.40;;;1.83;;
8952;SDS011;4511;50.890;8.054;2023-07-13T01:04:21;2.50;;;1.80;;
8952;SDS011;4511;50.890;8.054;2023-07-13T01:06:50;6.33;;;1.80;;
8952;SDS011;4511;50.890;8.054;2023-07-13T01:09:17;2.57;;;1.70;;
8952;SDS011;4511;50.890;8.054;2023-07-13T01:11:44;3.63;;;1.83;;
8952;SDS011;4511;50.890;8.054;2023-07-13T01:14:11;4.73;;;2.00;;
8952;SDS011;4511;50.890;8.054;2023-07-13T01:16:40;4.00;;;1.80;;
8952;SDS011;4511;50.890;8.054;2023-07-13T01:19:11;4.73;;;2.00;;
8952;SDS011;4511;50.890;8.054;2023-07-13T01:21:49;3.70;;;2.03;;
8952;SDS011;4511;50.890;8.054;2023-07-13T01:24:16;3.50;;;1.70;;
8952;SDS011;4511;50.890;8.054;2023-07-13T01:26:43;4.17;;;2.10;;
8952;SDS011;4511;50.890;8.054;2023-07-13T01:29:10;4.37;;;1.90;;
8952;SDS011;4511;50.890;8.054;2023-07-13T01:31:36;3.47;;;2.03;;
8952;SDS011;4511;50.890;8.054;2023-07-13T01:34:02;3.00;;;1.90;;
8952;SDS011;4511;50.890;8.054;2023-07-13T01:36:30;5.77;;;2.20;;
8952;SDS011;4511;50.890;8.054;2023-07-13T01:38:58;3.40;;;1.90;;
8952;SDS011;4511;50.890;8.054;2023-07-13T01:41:24;4.53;;;1.80;;
8952;SDS011;4511;50.890;8.054;2023-07-13T01:43:51;3.67;;;2.10;;
8952;SDS011;4511;50.890;8.054;2023-07-13T01:46:18;4.50;;;2.07;;
8952;SDS011;4511;50.890;8.054;2023-07-13T01:48:44;6.23;;;2.00;;
8952;SDS011;4511;50.890;8.054;2023-07-13T01:51:11;3.73;;;2.03;;
8952;SDS011;4511;50.890;8.054;2023-07-13T01:53:38;3.30;;;2.13;;
8952;SDS011;4511;50.890;8.054;2023-07-13T01:56:07;3.67;;;2.00;;
8952;SDS011;4511;50.890;8.054;2023-07-13T01:58:33;5.07;;;2.10;;
8952;SDS011;4511;50.890;8.054;2023-07-13T02:01:00;3.73;;;1.90;;
8952;SDS011;4511;50.890;8.054;2023-07-13T02:03:27;4.47;;;2.53;;
8952;SDS011;4511;50.890;8.054;2023-07-13T02:05:53;3.83;;;2.07;;
8952;SDS011;4511;50.890;8.054;2023-07-13T02:08:22;3.90;;;1.90;;
8952;SDS011;4511;50.890;8.054;2023-07-13T02:10:50;3.77;;;2.00;;
8952;SDS011;4511;50.890;8.054;2023-07-13T02:13:18;6.37;;;2.07;;
8952;SDS011;4511;50.890;8.054;2023-07-13T02:15:44;3.60;;;2.00;;
8952;SDS011;4511;50.890;8.054;2023-07-13T02:18:11;5.23;;;2.13;;
8952;SDS011;4511;50.890;8.054;2023-07-13T02:20:42;5.43;;;2.20;;
8952;SDS011;4511;50.890;8.054;2023-07-13T02:23:09;4.17;;;1.90;;
8952;SDS011;4511;50.890;8.054;2023-07-13T02:25:36;3.97;;;2.00;;
8952;SDS011;4511;50.890;8.054;2023-07-13T02:28:03;3.03;;;2.20;;
8952;SDS011;4511;50.890;8.054;2023-07-13T02:30:31;3.77;;;2.10;;
8952;SDS011;4511;50.890;8.054;2023-07-13T02:32:58;2.83;;;1.93;;
8952;SDS011;4511;50.890;8.054;2023-07-13T02:35:25;4.03;;;2.10;;
8952;SDS011;4511;50.890;8.054;2023-07-13T02:37:51;4.77;;;2.20;;
8952;SDS011;4511;50.890;8.054;2023-07-13T02:40:18;2.93;;;2.23;;
8952;SDS011;4511;50.890;8.054;2023-07-13T02:42:45;4.67;;;2.30;;
8952;SDS011;4511;50.890;8.054;2023-07-13T02:45:12;6.13;;;2.20;;
8952;SDS011;4511;50.890;8.054;2023-07-13T02:47:41;3.67;;;2.50;;
8952;SDS011;4511;50.890;8.054;2023-07-13T02:50:08;3.57;;;2.40;;
8952;SDS011;4511;50.890;8.054;2023-07-13T02:52:35;4.07;;;2.37;;
8952;SDS011;4511;50.890;8.054;2023-07-13T02:55:02;4.20;;;2.30;;
8952;SDS011;4511;50.890;8.054;2023-07-13T02:57:29;5.17;;;2.47;;
8952;SDS011;4511;50.890;8.054;2023-07-13T02:59:57;4.30;;;2.30;;
8952;SDS011;4511;50.890;8.054;2023-07-13T03:02:24;4.77;;;2.40;;
8952;SDS011;4511;50.890;8.054;2023-07-13T03:04:54;3.50;;;2.37;;
8952;SDS011;4511;50.890;8.054;2023-07-13T03:07:21;2.50;;;2.30;;
8952;SDS011;4511;50.890;8.054;2023-07-13T03:09:48;5.47;;;2.27;;
8952;SDS011;4511;50.890;8.054;2023-07-13T03:12:20;4.43;;;2.10;;
8952;SDS011;4511;50.890;8.054;2023-07-13T03:14:47;3.90;;;2.57;;
8952;SDS011;4511;50.890;8.054;2023-07-13T03:17:13;3.57;;;2.50;;
8952;SDS011;4511;50.890;8.054;2023-07-13T03:19:40;5.87;;;2.57;;
8952;SDS011;4511;50.890;8.054;2023-07-13T03:22:10;3.60;;;2.53;;
8952;SDS011;4511;50.890;8.054;2023-07-13T03:24:36;7.03;;;2.67;;
8952;SDS011;4511;50.890;8.054;2023-07-13T03:27:04;3.07;;;2.43;;
8952;SDS011;4511;50.890;8.054;2023-07-13T03:29:31;5.70;;;2.50;;
8952;SDS011;4511;50.890;8.054;2023-07-13T03:31:58;6.03;;;2.30;;
8952;SDS011;4511;50.890;8.054;2023-07-13T03:34:25;5.33;;;2.43;;
8952;SDS011;4511;50.890;8.054;2023-07-13T03:36:53;3.63;;;2.27;;
8952;SDS011;4511;50.890;8.054;2023-07-13T03:39:21;6.53;;;2.53;;
8952;SDS011;4511;50.890;8.054;2023-07-13T03:41:48;3.00;;;2.03;;
8952;SDS011;4511;50.890;8.054;2023-07-13T03:44:15;7.40;;;2.40;;
8952;SDS011;4511;50.890;8.054;2023-07-13T03:46:43;2.90;;;2.20;;
8952;SDS011;4511;50.890;8.054;2023-07-13T03:49:10;3.87;;;2.40;;
8952;SDS011;4511;50.890;8.054;2023-07-13T03:51:37;2.77;;;2.20;;
8952;SDS011;4511;50.890;8.054;2023-07-13T03:54:04;3.40;;;2.40;;
8952;SDS011;4511;50.890;8.054;2023-07-13T03:56:32;5.00;;;2.20;;
8952;SDS011;4511;50.890;8.054;2023-07-13T03:58:59;3.07;;;2.10;;
8952;SDS011;4511;50.890;8.054;2023-07-13T04:01:27;6.50;;;2.63;;
8952;SDS011;4511;50.890;8.054;2023-07-13T04:03:54;5.53;;;2.33;;
8952;SDS011;4511;50.890;8.054;2023-07-13T04:06:21;4.87;;;2.53;;
8952;SDS011;4511;50.890;8.054;2023-07-13T04:08:50;3.77;;;2.43;;
8952;SDS011;4511;50.890;8.054;2023-07-13T04:11:18;4.57;;;2.60;;
8952;SDS011;4511;50.890;8.054;2023-07-13T04:13:48;2.60;;;2.23;;
8952;SDS011;4511;50.890;8.054;2023-07-13T04:16:15;3.83;;;2.37;;
8952;SDS011;4511;50.890;8.054;2023-07-13T04:18:43;3.93;;;2.30;;
8952;SDS011;4511;50.890;8.054;2023-07-13T04:21:10;3.77;;;2.30;;
8952;SDS011;4511;50.890;8.054;2023-07-13T04:23:37;5.20;;;2.30;;
8952;SDS011;4511;50.890;8.054;2023-07-13T04:26:05;3.83;;;2.33;;
8952;SDS011;4511;50.890;8.054;2023-07-13T04:28:32;4.77;;;2.30;;
8952;SDS011;4511;50.890;8.054;2023-07-13T04:31:01;2.40;;;2.03;;
8952;SDS011;4511;50.890;8.054;2023-07-13T04:33:28;2.33;;;1.87;;
8952;SDS011;4511;50.890;8.054;2023-07-13T04:35:55;4.97;;;2.13;;
8952;SDS011;4511;50.890;8.054;2023-07-13T04:38:23;2.70;;;2.10;;
8952;SDS011;4511;50.890;8.054;2023-07-13T04:40:52;3.97;;;2.10;;
8952;SDS011;4511;50.890;8.054;2023-07-13T04:43:20;4.13;;;2.20;;
8952;SDS011;4511;50.890;8.054;2023-07-13T04:45:47;4.93;;;2.30;;
8952;SDS011;4511;50.890;8.054;2023-07-13T04:48:15;9.17;;;2.40;;
8952;SDS011;4511;50.890;8.054;2023-07-13T04:50:42;4.10;;;2.27;;
8952;SDS011;4511;50.890;8.054;2023-07-13T04:53:09;3.23;;;1.90;;
8952;SDS011;4511;50.890;8.054;2023-07-13T04:55:36;4.10;;;2.03;;
8952;SDS011;4511;50.890;8.054;2023-07-13T04:58:03;3.57;;;2.30;;
8952;SDS011;4511;50.890;8.054;2023-07-13T05:00:30;1.90;;;1.80;;
8952;SDS011;4511;50.890;8.054;2023-07-13T05:02:57;4.53;;;2.00;;
8952;SDS011;4511;50.890;8.054;2023-07-13T05:05:28;3.00;;;1.97;;
8952;SDS011;4511;50.890;8.054;2023-07-13T05:07:55;4.03;;;2.20;;
8952;SDS011;4511;50.890;8.054;2023-07-13T05:10:22;3.87;;;2.20;;
8952;SDS011;4511;50.890;8.054;2023-07-13T05:12:49;4.33;;;2.40;;
8952;SDS011;4511;50.890;8.054;2023-07-13T05:15:16;4.70;;;2.47;;
8952;SDS011;4511;50.890;8.054;2023-07-13T05:17:46;3.87;;;2.50;;
8952;SDS011;4511;50.890;8.054;2023-07-13T05:20:12;5.30;;;2.87;;
8952;SDS011;4511;50.890;8.054;2023-07-13T05:22:41;5.70;;;2.93;;
8952;SDS011;4511;50.890;8.054;2023-07-13T05:25:08;5.00;;;3.17;;
8952;SDS011;4511;50.890;8.054;2023-07-13T05:27:35;5.87;;;3.13;;
8952;SDS011;4511;50.890;8.054;2023-07-13T05:30:02;6.83;;;3.23;;
8952;SDS011;4511;50.890;8.054;2023-07-13T05:32:30;4.47;;;2.90;;
8952;SDS011;4511;50.890;8.054;2023-07-13T05:34:57;4.93;;;3.33;;
8952;SDS011;4511;50.890;8.054;2023-07-13T05:37:24;8.50;;;3.30;;
8952;SDS011;4511;50.890;8.054;2023-07-13T05:39:52;5.23;;;2.83;;
8952;SDS011;4511;50.890;8.054;2023-07-13T05:42:18;7.83;;;2.90;;
8952;SDS011;4511;50.890;8.054;2023-07-13T05:44:45;5.77;;;2.80;;
8952;SDS011;4511;50.890;8.054;2023-07-13T05:47:12;5.27;;;2.97;;
8952;SDS011;4511;50.890;8.054;2023-07-13T05:49:39;7.03;;;2.93;;
8952;SDS011;4511;50.890;8.054;2023-07-13T05:52:07;7.73;;;2.70;;
8952;SDS011;4511;50.890;8.054;2023-07-13T05:54:33;4.43;;;2.70;;
8952;SDS011;4511;50.890;8.054;2023-07-13T05:57:02;5.43;;;2.70;;
8952;SDS011;4511;50.890;8.054;2023-07-13T05:59:29;5.13;;;2.30;;
8952;SDS011;4511;50.890;8.054;2023-07-13T06:01:55;6.07;;;2.80;;
8952;SDS011;4511;50.890;8.054;2023-07-13T06:04:22;6.20;;;2.50;;
8952;SDS011;4511;50.890;8.054;2023-07-13T06:06:49;5.10;;;2.20;;
8952;SDS011;4511;50.890;8.054;2023-07-13T06:09:15;3.90;;;1.93;;
8952;SDS011;4511;50.890;8.054;2023-07-13T06:11:42;4.17;;;1.97;;
8952;SDS011;4511;50.890;8.054;2023-07-13T06:14:11;5.10;;;1.90;;
8952;SDS011;4511;50.890;8.054;2023-07-13T06:16:39;4.20;;;1.90;;
8952;SDS011;4511;50.890;8.054;2023-07-13T06:19:06;8.03;;;1.83;;
8952;SDS011;4511;50.890;8.054;2023-07-13T06:21:33;6.13;;;2.30;;
8952;SDS011;4511;50.890;8.054;2023-07-13T06:23:59;4.83;;;1.80;;
8952;SDS011;4511;50.890;8.054;2023-07-13T06:26:26;4.00;;;1.80;;
8952;SDS011;4511;50.890;8.054;2023-07-13T06:28:53;5.60;;;2.40;;
8952;SDS011;4511;50.890;8.054;2023-07-13T06:31:21;3.17;;;1.87;;
8952;SDS011;4511;50.890;8.054;2023-07-13T06:33:48;5.03;;;1.93;;
8952;SDS011;4511;50.890;8.054;2023-07-13T06:36:14;4.47;;;1.97;;
8952;SDS011;4511;50.890;8.054;2023-07-13T06:38:41;3.07;;;2.00;;
8952;SDS011;4511;50.890;8.054;2023-07-13T06:41:08;6.10;;;2.00;;
8952;SDS011;4511;50.890;8.054;2023-07-13T06:43:35;4.37;;;2.10;;
8952;SDS011;4511;50.890;8.054;2023-07-13T06:46:02;6.07;;;2.00;;
8952;SDS011;4511;50.890;8.054;2023-07-13T06:48:30;3.83;;;1.90;;
8952;SDS011;4511;50.890;8.054;2023-07-13T06:50:57;2.73;;;1.90;;
8952;SDS011;4511;50.890;8.054;2023-07-13T06:53:24;3.83;;;2.13;;
8952;SDS011;4511;50.890;8.054;2023-07-13T06:55:51;4.53;;;1.90;;
8952;SDS011;4511;50.890;8.054;2023-07-13T06:58:18;3.83;;;1.80;;
8952;SDS011;4511;50.890;8.054;2023-07-13T07:00:45;5.20;;;2.03;;
8952;SDS011;4511;50.890;8.054;2023-07-13T07:03:12;4.50;;;1.90;;
8952;SDS011;4511;50.890;8.054;2023-07-13T07:05:40;3.77;;;1.87;;
8952;SDS011;4511;50.890;8.054;2023-07-13T07:08:07;6.43;;;2.07;;
8952;SDS011;4511;50.890;8.054;2023-07-13T07:10:34;2.83;;;1.53;;
8952;SDS011;4511;50.890;8.054;2023-07-13T07:13:01;4.70;;;1.93;;
8952;SDS011;4511;50.890;8.054;2023-07-13T07:15:29;4.80;;;2.07;;
8952;SDS011;4511;50.890;8.054;2023-07-13T07:17:56;3.00;;;1.97;;
8952;SDS011;4511;50.890;8.054;2023-07-13T07:20:23;5.77;;;2.03;;
8952;SDS011;4511;50.890;8.054;2023-07-13T07:22:51;4.53;;;1.90;;
8952;SDS011;4511;50.890;8.054;2023-07-13T07:25:18;9.03;;;1.83;;
8952;SDS011;4511;50.890;8.054;2023-07-13T07:27:44;4.23;;;1.90;;
8952;SDS011;4511;50.890;8.054;2023-07-13T07:30:12;5.57;;;2.00;;
8952;SDS011;4511;50.890;8.054;2023-07-13T07:32:40;6.63;;;2.20;;
8952;SDS011;4511;50.890;8.054;2023-07-13T07:35:07;2.97;;;1.70;;
8952;SDS011;4511;50.890;8.054;2023-07-13T07:37:34;3.57;;;1.93;;
8952;SDS011;4511;50.890;8.054;2023-07-13T07:40:02;4.10;;;2.00;;
8952;SDS011;4511;50.890;8.054;2023-07-13T07:42:29;3.83;;;1.90;;
8952;SDS011;4511;50.890;8.054;2023-07-13T07:44:56;3.40;;;1.70;;
8952;SDS011;4511;50.890;8.054;2023-07-13T07:47:23;4.20;;;1.90;;
8952;SDS011;4511;50.890;8.054;2023-07-13T07:49:50;5.13;;;1.80;;
8952;SDS011;4511;50.890;8.054;2023-07-13T07:52:17;4.80;;;1.70;;
8952;SDS011;4511;50.890;8.054;2023-07-13T07:54:44;4.10;;;1.80;;
8952;SDS011;4511;50.890;8.054;2023-07-13T07:57:12;2.97;;;1.80;;
8952;SDS011;4511;50.890;8.054;2023-07-13T07:59:39;4.30;;;1.90;;
8952;SDS011;4511;50.890;8.054;2023-07-13T08:02:06;3.63;;;1.70;;
8952;SDS011;4511;50.890;8.054;2023-07-13T08:04:34;2.47;;;1.67;;
8952;SDS011;4511;50.890;8.054;2023-07-13T08:07:01;3.73;;;1.87;;
8952;SDS011;4511;50.890;8.054;2023-07-13T08:09:28;4.70;;;1.90;;
8952;SDS011;4511;50.890;8.054;2023-07-13T08:11:55;1.83;;;1.60;;
8952;SDS011;4511;50.890;8.054;2023-07-13T08:14:23;3.47;;;1.77;;
8952;SDS011;4511;50.890;8.054;2023-07-13T08:16:50;2.13;;;1.60;;
8952;SDS011;4511;50.890;8.054;2023-07-13T08:19:18;2.77;;;1.60;;
8952;SDS011;4511;50.890;8.054;2023-07-13T08:21:45;3.80;;;1.50;;
8952;SDS011;4511;50.890;8.054;2023-07-13T08:24:13;3.53;;;1.63;;
8952;SDS011;4511;50.890;8.054;2023-07-13T08:26:40;3.97;;;1.60;;
8952;SDS011;4511;50.890;8.054;2023-07-13T08:29:06;4.27;;;1.50;;
8952;SDS011;4511;50.890;8.054;2023-07-13T08:31:34;3.67;;;1.60;;
8952;SDS011;4511;50.890;8.054;2023-07-13T08:34:01;2.80;;;1.70;;
8952;SDS011;4511;50.890;8.054;2023-07-13T08:36:28;2.87;;;1.60;;
8952;SDS011;4511;50.890;8.054;2023-07-13T08:38:55;21.40;;;2.47;;
8952;SDS011;4511;50.890;8.054;2023-07-13T08:41:22;2.80;;;1.70;;
8952;SDS011;4511;50.890;8.054;2023-07-13T08:43:50;1.83;;;1.67;;
8952;SDS011;4511;50.890;8.054;2023-07-13T08:46:21;3.23;;;1.80;;
8952;SDS011;4511;50.890;8.054;2023-07-13T08:48:55;4.67;;;1.70;;
8952;SDS011;4511;50.890;8.054;2023-07-13T08:51:29;6.40;;;1.47;;
8952;SDS011;4511;50.890;8.054;2023-07-13T08:54:01;2.27;;;1.67;;
8952;SDS011;4511;50.890;8.054;2023-07-13T08:56:31;2.97;;;1.90;;
8952;SDS011;4511;50.890;8.054;2023-07-13T08:58:58;4.37;;;1.70;;
8952;SDS011;4511;50.890;8.054;2023-07-13T09:01:31;3.67;;;1.73;;
8952;SDS011;4511;50.890;8.054;2023-07-13T09:04:08;5.37;;;1.47;;
8952;SDS011;4511;50.890;8.054;2023-07-13T09:06:55;1.73;;;1.47;;
8952;SDS011;4511;50.890;8.054;2023-07-13T09:09:28;2.93;;;1.60;;
8952;SDS011;4511;50.890;8.054;2023-07-13T09:12:07;5.30;;;1.70;;
8952;SDS011;4511;50.890;8.054;2023-07-13T09:14:42;2.50;;;1.60;;
8952;SDS011;4511;50.890;8.054;2023-07-13T09:17:12;6.00;;;1.70;;
8952;SDS011;4511;50.890;8.054;2023-07-13T09:19:44;1.43;;;1.33;;
8952;SDS011;4511;50.890;8.054;2023-07-13T09:22:16;2.87;;;1.60;;
8952;SDS011;4511;50.890;8.054;2023-07-13T09:24:55;2.20;;;1.37;;
8952;SDS011;4511;50.890;8.054;2023-07-13T09:27:29;3.23;;;1.67;;
8952;SDS011;4511;50.890;8.054;2023-07-13T09:30:02;1.80;;;1.70;;
8952;SDS011;4511;50.890;8.054;2023-07-13T09:32:41;2.30;;;1.70;;
8952;SDS011;4511;50.890;8.054;2023-07-13T09:35:12;3.40;;;1.83;;
8952;SDS011;4511;50.890;8.054;2023-07-13T09:37:43;2.57;;;1.70;;
8952;SDS011;4511;50.890;8.054;2023-07-13T09:43:02;2.80;;;1.60;;
8952;SDS011;4511;50.890;8.054;2023-07-13T09:45:32;2.80;;;1.70;;
8952;SDS011;4511;50.890;8.054;2023-07-13T09:48:03;2.27;;;1.53;;
8952;SDS011;4511;50.890;8.054;2023-07-13T09:50:33;2.23;;;1.80;;
8952;SDS011;4511;50.890;8.054;2023-07-13T09:53:00;2.97;;;1.60;;
8952;SDS011;4511;50.890;8.054;2023-07-13T09:55:30;3.30;;;1.80;;
8952;SDS011;4511;50.890;8.054;2023-07-13T09:58:02;3.10;;;1.60;;
8952;SDS011;4511;50.890;8.054;2023-07-13T10:00:31;3.23;;;1.57;;
8952;SDS011;4511;50.890;8.054;2023-07-13T10:02:59;2.73;;;1.80;;
8952;SDS011;4511;50.890;8.054;2023-07-13T10:05:28;3.60;;;1.73;;
8952;SDS011;4511;50.890;8.054;2023-07-13T10:08:05;4.40;;;1.67;;
8952;SDS011;4511;50.890;8.054;2023-07-13T10:10:40;2.83;;;1.70;;
8952;SDS011;4511;50.890;8.054;2023-07-13T10:13:12;2.63;;;1.40;;
8952;SDS011;4511;50.890;8.054;2023-07-13T10:15:51;2.47;;;1.40;;
8952;SDS011;4511;50.890;8.054;2023-07-13T10:18:19;3.27;;;1.73;;
8952;SDS011;4511;50.890;8.054;2023-07-13T10:20:48;2.60;;;1.60;;
8952;SDS011;4511;50.890;8.054;2023-07-13T10:23:20;2.70;;;1.77;;
8952;SDS011;4511;50.890;8.054;2023-07-13T10:25:49;2.93;;;1.50;;
8952;SDS011;4511;50.890;8.054;2023-07-13T10:28:20;2.63;;;1.70;;
8952;SDS011;4511;50.890;8.054;2023-07-13T10:30:53;3.47;;;1.53;;
8952;SDS011;4511;50.890;8.054;2023-07-13T10:33:22;2.57;;;1.53;;
8952;SDS011;4511;50.890;8.054;2023-07-13T10:35:51;2.97;;;1.60;;
8952;SDS011;4511;50.890;8.054;2023-07-13T10:38:23;2.63;;;1.63;;
8952;SDS011;4511;50.890;8.054;2023-07-13T10:40:54;2.30;;;1.70;;
8952;SDS011;4511;50.890;8.054;2023-07-13T10:43:25;4.97;;;1.63;;
8952;SDS011;4511;50.890;8.054;2023-07-13T10:45:54;3.03;;;1.40;;
8952;SDS011;4511;50.890;8.054;2023-07-13T10:48:22;2.50;;;1.40;;
8952;SDS011;4511;50.890;8.054;2023-07-13T10:50:52;3.47;;;1.53;;
8952;SDS011;4511;50.890;8.054;2023-07-13T10:53:27;2.87;;;1.50;;
8952;SDS011;4511;50.890;8.054;2023-07-13T10:55:59;2.97;;;1.63;;
8952;SDS011;4511;50.890;8.054;2023-07-13T10:58:32;2.30;;;1.50;;
8952;SDS011;4511;50.890;8.054;2023-07-13T11:01:02;2.53;;;1.60;;
8952;SDS011;4511;50.890;8.054;2023-07-13T11:03:33;1.60;;;1.50;;
8952;SDS011;4511;50.890;8.054;2023-07-13T11:06:07;2.80;;;1.50;;
8952;SDS011;4511;50.890;8.054;2023-07-13T11:08:37;5.07;;;1.70;;
8952;SDS011;4511;50.890;8.054;2023-07-13T11:11:32;3.83;;;1.57;;
8952;SDS011;4511;50.890;8.054;2023-07-13T11:14:07;2.97;;;1.53;;
8952;SDS011;4511;50.890;8.054;2023-07-13T11:16:53;2.27;;;1.40;;
8952;SDS011;4511;50.890;8.054;2023-07-13T11:19:26;3.17;;;1.70;;
8952;SDS011;4511;50.890;8.054;2023-07-13T11:22:16;2.27;;;1.57;;
8952;SDS011;4511;50.890;8.054;2023-07-13T11:24:54;3.87;;;1.50;;
8952;SDS011;4511;50.890;8.054;2023-07-13T11:27:32;2.20;;;1.50;;
8952;SDS011;4511;50.890;8.054;2023-07-13T11:30:13;3.13;;;1.50;;
8952;SDS011;4511;50.890;8.054;2023-07-13T11:32:51;3.70;;;1.30;;
8952;SDS011;4511;50.890;8.054;2023-07-13T11:35:30;1.63;;;1.30;;
8952;SDS011;4511;50.890;8.054;2023-07-13T11:38:01;2.30;;;1.40;;
8952;SDS011;4511;50.890;8.054;2023-07-13T11:40:28;3.50;;;1.63;;
8952;SDS011;4511;50.890;8.054;2023-07-13T11:42:58;3.13;;;1.50;;
8952;SDS011;4511;50.890;8.054;2023-07-13T11:45:26;2.07;;;1.30;;
8952;SDS011;4511;50.890;8.054;2023-07-13T11:47:53;1.73;;;1.37;;
8952;SDS011;4511;50.890;8.054;2023-07-13T11:50:22;3.57;;;1.43;;
8952;SDS011;4511;50.890;8.054;2023-07-13T11:52:50;2.67;;;1.40;;
8952;SDS011;4511;50.890;8.054;2023-07-13T11:55:21;2.30;;;1.33;;
8952;SDS011;4511;50.890;8.054;2023-07-13T11:57:50;3.10;;;1.50;;
8952;SDS011;4511;50.890;8.054;2023-07-13T12:00:21;4.00;;;1.50;;
8952;SDS011;4511;50.890;8.054;2023-07-13T12:02:53;3.23;;;1.50;;
8952;SDS011;4511;50.890;8.054;2023-07-13T12:05:22;2.70;;;1.50;;
8952;SDS011;4511;50.890;8.054;2023-07-13T12:07:50;2.63;;;1.67;;
8952;SDS011;4511;50.890;8.054;2023-07-13T12:10:21;1.93;;;1.60;;
8952;SDS011;4511;50.890;8.054;2023-07-13T12:12:51;5.23;;;1.90;;
8952;SDS011;4511;50.890;8.054;2023-07-13T12:15:19;4.40;;;1.60;;
8952;SDS011;4511;50.890;8.054;2023-07-13T12:17:47;1.83;;;1.50;;
8952;SDS011;4511;50.890;8.054;2023-07-13T12:20:17;3.20;;;1.77;;
8952;SDS011;4511;50.890;8.054;2023-07-13T12:22:48;2.40;;;1.57;;
8952;SDS011;4511;50.890;8.054;2023-07-13T12:25:16;3.13;;;1.87;;
8952;SDS011;4511;50.890;8.054;2023-07-13T12:27:47;1.97;;;1.60;;
8952;SDS011;4511;50.890;8.054;2023-07-13T12:30:22;5.17;;;1.80;;
8952;SDS011;4511;50.890;8.054;2023-07-13T12:32:59;3.27;;;1.80;;
8952;SDS011;4511;50.890;8.054;2023-07-13T12:35:28;2.73;;;1.80;;
8952;SDS011;4511;50.890;8.054;2023-07-13T12:38:00;3.43;;;1.70;;
8952;SDS011;4511;50.890;8.054;2023-07-13T12:40:29;3.07;;;1.53;;
8952;SDS011;4511;50.890;8.054;2023-07-13T12:43:01;3.70;;;1.50;;
8952;SDS011;4511;50.890;8.054;2023-07-13T12:45:29;4.53;;;1.70;;
8952;SDS011;4511;50.890;8.054;2023-07-13T12:47:57;2.50;;;1.50;;
8952;SDS011;4511;50.890;8.054;2023-07-13T12:50:29;2.77;;;1.60;;
8952;SDS011;4511;50.890;8.054;2023-07-13T12:53:01;2.70;;;1.67;;
8952;SDS011;4511;50.890;8.054;2023-07-13T12:55:29;5.53;;;1.80;;
8952;SDS011;4511;50.890;8.054;2023-07-13T12:57:58;4.10;;;1.63;;
8952;SDS011;4511;50.890;8.054;2023-07-13T13:00:28;3.30;;;1.80;;
8952;SDS011;4511;50.890;8.054;2023-07-13T13:02:57;3.23;;;1.77;;
8952;SDS011;4511;50.890;8.054;2023-07-13T13:05:28;4.13;;;1.93;;
8952;SDS011;4511;50.890;8.054;2023-07-13T13:07:57;4.53;;;1.77;;
8952;SDS011;4511;50.890;8.054;2023-07-13T13:10:24;2.37;;;1.40;;
8952;SDS011;4511;50.890;8.054;2023-07-13T13:12:51;3.27;;;1.53;;
8952;SDS011;4511;50.890;8.054;2023-07-13T13:15:18;3.27;;;1.67;;
8952;SDS011;4511;50.890;8.054;2023-07-13T13:17:48;2.23;;;1.77;;
8952;SDS011;4511;50.890;8.054;2023-07-13T13:20:16;3.30;;;1.73;;
8952;SDS011;4511;50.890;8.054;2023-07-13T13:22:45;2.57;;;1.60;;
8952;SDS011;4511;50.890;8.054;2023-07-13T13:25:12;1.63;;;1.50;;
8952;SDS011;4511;50.890;8.054;2023-07-13T13:27:41;4.83;;;1.53;;
8952;SDS011;4511;50.890;8.054;2023-07-13T13:30:10;3.97;;;1.80;;
8952;SDS011;4511;50.890;8.054;2023-07-13T13:32:38;2.93;;;2.10;;
8952;SDS011;4511;50.890;8.054;2023-07-13T13:35:08;6.03;;;2.00;;
8952;SDS011;4511;50.890;8.054;2023-07-13T13:37:39;2.33;;;1.90;;
8952;SDS011;4511;50.890;8.054;2023-07-13T13:40:13;2.67;;;1.90;;
8952;SDS011;4511;50.890;8.054;2023-07-13T13:42:41;4.53;;;1.93;;
8952;SDS011;4511;50.890;8.054;2023-07-13T13:45:08;4.47;;;1.83;;
8952;SDS011;4511;50.890;8.054;2023-07-13T13:47:37;3.20;;;1.80;;
8952;SDS011;4511;50.890;8.054;2023-07-13T13:50:14;2.43;;;1.90;;
8952;SDS011;4511;50.890;8.054;2023-07-13T13:52:42;4.33;;;1.90;;
8952;SDS011;4511;50.890;8.054;2023-07-13T13:55:13;4.13;;;1.93;;
8952;SDS011;4511;50.890;8.054;2023-07-13T13:57:42;3.83;;;1.90;;
8952;SDS011;4511;50.890;8.054;2023-07-13T14:00:09;3.67;;;1.90;;
8952;SDS011;4511;50.890;8.054;2023-07-13T14:02:39;2.17;;;1.80;;
8952;SDS011;4511;50.890;8.054;2023-07-13T14:05:09;3.40;;;1.70;;
8952;SDS011;4511;50.890;8.054;2023-07-13T14:07:40;5.60;;;2.10;;
8952;SDS011;4511;50.890;8.054;2023-07-13T14:10:10;5.20;;;2.00;;
8952;SDS011;4511;50.890;8.054;2023-07-13T14:12:40;3.90;;;1.80;;
8952;SDS011;4511;50.890;8.054;2023-07-13T14:15:13;2.97;;;1.80;;
8952;SDS011;4511;50.890;8.054;2023-07-13T14:17:43;4.13;;;2.10;;
8952;SDS011;4511;50.890;8.054;2023-07-13T14:20:10;4.70;;;2.20;;
8952;SDS011;4511;50.890;8.054;2023-07-13T14:22:39;2.60;;;1.80;;
8952;SDS011;4511;50.890;8.054;2023-07-13T14:25:10;5.27;;;1.90;;
8952;SDS011;4511;50.890;8.054;2023-07-13T14:27:37;3.37;;;2.00;;
8952;SDS011;4511;50.890;8.054;2023-07-13T14:30:07;2.40;;;1.70;;
8952;SDS011;4511;50.890;8.054;2023-07-13T14:32:38;4.53;;;1.60;;
8952;SDS011;4511;50.890;8.054;2023-07-13T14:35:05;4.33;;;1.80;;
8952;SDS011;4511;50.890;8.054;2023-07-13T14:37:33;2.83;;;1.73;;
8952;SDS011;4511;50.890;8.054;2023-07-13T14:40:08;2.87;;;1.60;;
8952;SDS011;4511;50.890;8.054;2023-07-13T14:42:39;6.33;;;1.97;;
8952;SDS011;4511;50.890;8.054;2023-07-13T14:45:12;2.57;;;1.77;;
8952;SDS011;4511;50.890;8.054;2023-07-13T14:47:39;2.50;;;1.80;;
8952;SDS011;4511;50.890;8.054;2023-07-13T14:50:11;2.37;;;1.70;;
8952;SDS011;4511;50.890;8.054;2023-07-13T14:52:41;2.63;;;1.80;;
8952;SDS011;4511;50.890;8.054;2023-07-13T14:55:11;2.70;;;1.80;;
8952;SDS011;4511;50.890;8.054;2023-07-13T14:57:39;4.83;;;1.80;;
8952;SDS011;4511;50.890;8.054;2023-07-13T15:00:12;4.90;;;1.73;;
8952;SDS011;4511;50.890;8.054;2023-07-13T15:02:41;3.23;;;1.53;;
8952;SDS011;4511;50.890;8.054;2023-07-13T15:05:13;3.10;;;1.70;;
8952;SDS011;4511;50.890;8.054;2023-07-13T15:07:41;3.53;;;1.70;;
8952;SDS011;4511;50.890;8.054;2023-07-13T15:10:17;6.77;;;2.10;;
8952;SDS011;4511;50.890;8.054;2023-07-13T15:12:45;2.67;;;1.80;;
8952;SDS011;4511;50.890;8.054;2023-07-13T15:15:12;1.97;;;1.40;;
8952;SDS011;4511;50.890;8.054;2023-07-13T15:17:40;3.30;;;1.80;;
8952;SDS011;4511;50.890;8.054;2023-07-13T15:20:17;1.97;;;1.60;;
8952;SDS011;4511;50.890;8.054;2023-07-13T15:22:54;2.53;;;1.70;;
8952;SDS011;4511;50.890;8.054;2023-07-13T15:25:23;4.80;;;1.70;;
8952;SDS011;4511;50.890;8.054;2023-07-13T15:27:51;2.53;;;1.60;;